Weather observations for the past three days for
Acadiana Regional Airport
Imperial (Metric)
Date Time (cdt) Wind (mph) Vis. (mi.) Weather Sky Cond. Temperature (ºF) Relative Humidity Wind Chill (°F) Heat Index (°F) Pressure Precipitation (in)
Air Dwpt 6 hour altimeter (in) sea level (mb) 1 hr 3 hr 6 hr
Max. Min.
01 07:53 E 10 10.00 Light Rain FEW020 BKN033 BKN080 77 75.9 96% 78 30 1015.7 0.12
01 06:53 E 14 10.00 Light Rain FEW027 BKN040 BKN070 77 75 79 75.9 94% 78 29.97 1014.8 0.11
01 05:53 E 8 8.00 Light Rain FEW028 SCT065 BKN080 77 75.9 96% 78 29.95 1014.2
01 04:53 SE 10 10.00 Light Rain FEW017 BKN090 OVC110 77 75 94% 78 29.96 1014.6 0.1
01 03:53 SE 10 6.00 Thunderstorm in Vicinity Rain Fog/Mist SCT017 BKN025 BKN035 78.1 75.9 93% 81 29.97 1014.8 0.01 0.01
01 02:53 E 7 10.00 Partly Cloudy FEW026 SCT065 79 75.9 90% 83 29.96 1014.5
01 01:53 E 10 10.00 Light Rain SCT100 78.1 75 90% 81 29.98 1015.0
31 23:53 E 8 10.00 Fair CLR 79 75 88% 83 29.98 1015.2
31 22:53 NE 8 10.00 Fair CLR 79 75 88% 83 29.99 1015.3
31 21:53 NE 7 10.00 Fair CLR 79 73.9 85% 83 29.98 1015.1
31 20:53 E 9 10.00 Fair CLR 80.1 73.9 82% 85 29.97 1014.8
31 19:53 E 8 10.00 Fair CLR 81 73.9 79% 86 29.96 1014.5
31 18:53 E 8 10.00 Fair CLR 82 75.9 88 77 82% 89 29.96 1014.4 0.11
31 17:53 NE 8 10.00 Fair CLR 84 75 74% 92 29.97 1014.8
31 16:53 E 9 10.00 A Few Clouds FEW100 84 75 74% 92 29.98 1015.1
31 15:53 NE 10 10.00 Thunderstorm in Vicinity CLR 88 78.1 73% 102 29.97 1014.8 0.11
31 14:53 NE 6 10.00 Fair CLR 82.9 75.9 79% 91 29.98 1015.3
31 13:53 E 9 1.75 Thunderstorm in Vicinity Rain Fog/Mist SCT049 BKN075 BKN090 77 75 94% 78 30.01 1016.1 0.11
31 12:53 NE 10 G 21 10.00 Partly Cloudy FEW037 SCT055 90 75 91.9 77 62% 100 30 1015.9
31 11:53 NE 13 10.00 Mostly Cloudy BKN028 89.1 77 68% 102 30.02 1016.6
31 10:53 NE 12 10.00 A Few Clouds FEW024 FEW031 FEW055 88 75.9 68% 99 30.03 1016.7
31 09:53 E 12 G 20 10.00 A Few Clouds FEW017 86 77 75% 97 30.03 1016.9
31 08:53 NE 9 10.00 Fair CLR 82 77 85% 90 30.02 1016.4
31 07:53 NE 9 10.00 Fair CLR 79 75.9 90% 83 30.01 1016.1
31 06:53 NE 8 10.00 Fair CLR 77 75.9 79 73.9 96% 78 30 1015.8
31 05:53 N 6 10.00 Fair CLR 77 75.9 96% 78 29.98 1015.2
31 04:53 N 5 9.00 Fair CLR 75 75 100% 72 29.98 1015.0
31 03:53 N 3 10.00 Fair CLR 75.9 75 97% 75 29.98 1015.0
31 02:53 NW 3 9.00 Fair CLR 75 75 100% 72 29.98 1015.0
31 01:53 NE 5 10.00 Fair CLR 78.1 75.9 93% 81 29.99 1015.4
31 00:53 NE 3 10.00 Fair CLR 79 75 86 77 88% 83 30 1015.8
30 23:53 SE 3 10.00 Fair CLR 78.1 75 90% 81 30 1015.9
30 22:53 E 5 10.00 Fair CLR 80.1 75 85% 85 30.01 1016.2
30 21:53 E 6 10.00 Fair CLR 81 75 82% 87 30.01 1016.0
30 20:53 SE 5 10.00 Fair CLR 81 75.9 85% 87 29.98 1015.1
30 19:53 E 6 10.00 Fair CLR 82.9 75 77% 90 29.95 1014.2
30 18:53 E 7 10.00 Fair CLR 86 75 95 86 70% 95 29.96 1014.3
30 17:53 E 10 10.00 Mostly Cloudy SCT055 BKN075 89.1 75 63% 99 29.96 1014.4
30 16:53 SE 14 10.00 Mostly Cloudy BKN050 BKN060 88 75 66% 98 29.95 1014.0
30 15:53 NE 9 10.00 A Few Clouds FEW055 93.9 73 51% 103 29.96 1014.3
30 14:53 E 5 10.00 A Few Clouds FEW050 FEW070 93.9 73 51% 103 29.98 1015.0
30 13:53 NE 10 10.00 A Few Clouds FEW049 93.9 71.1 48% 101 30 1015.9
30 12:53 NE 10 G 16 10.00 Partly Cloudy SCT035 91.9 73 93 73.9 54% 101 30.02 1016.5
30 11:53 Vrbl 6 10.00 Partly Cloudy SCT032 91 75 59% 102 30.05 1017.3
30 10:53 NE 6 10.00 Fair CLR 88 75.9 68% 99 30.06 1017.7
30 09:53 NE 5 10.00 Fair CLR 86 75.9 72% 96 30.04 1017.3
30 08:53 N 5 10.00 Fair CLR 84 77 80% 94 30.04 1017.2
30 07:53 NW 5 4.00 Fog/Mist CLR 78.1 77 97% 81 30.03 1016.8
30 06:53 N 3 10.00 Fair CLR 73.9 73 77 72 97% 30.03 1016.6
30 05:53 N 3 4.00 Fog/Mist CLR 73 72 96% 30.01 1016.1
30 04:53 Calm 6.00 Fog/Mist CLR 73 72 96% 30 1015.7
30 03:53 Calm 8.00 Fair CLR 75 73.9 96% 73 30 1015.7
30 01:53 Calm 7.00 Fair CLR 75 73.9 96% 73 30.01 1016.1
30 00:53 Calm 8.00 Fair CLR 77 75 88 75.9 94% 78 30.02 1016.5
29 23:53 Calm 10.00 Fair CLR 78.1 75 90% 81 30.03 1016.7
29 22:53 Calm 10.00 Fair CLR 80.1 73.9 82% 85 30.02 1016.4
29 21:53 Calm 10.00 Fair CLR 79 75.9 90% 83 30.01 1016.1
29 20:53 Calm 10.00 Fair CLR 82 75 79% 89 29.98 1015.2
29 19:53 W 5 10.00 Fair CLR 84 75.9 77% 93 29.97 1014.8
29 18:53 SW 6 10.00 Fair CLR 88 75.9 96.1 88 68% 99 29.96 1014.5
29 17:53 E 6 10.00 Fair CLR 91.9 72 52% 100 29.96 1014.5
29 16:53 NE 8 10.00 Fair CLR 95 71.1 46% 102 29.96 1014.6
29 15:53 NE 8 10.00 Fair CLR 95 69.1 43% 101 29.98 1015.0
29 14:53 NE 8 10.00 Partly Cloudy FEW075 SCT090 93 71.1 49% 100 30 1015.8
29 13:53 N 7 10.00 Fair CLR 95 73.9 51% 106 30.02 1016.5
29 12:53 Vrbl 3 10.00 Fair CLR 93.9 73.9 93.9 77 52% 104 30.04 1017.1
29 11:53 Vrbl 7 10.00 Fair CLR 91.9 73.9 56% 102 30.06 1017.8
29 10:53 N 7 10.00 Fair CLR 90 75.9 63% 102 30.06 1017.7
29 09:53 N 7 10.00 Fair CLR 87.1 75 67% 97 30.05 1017.5
29 08:53 N 7 10.00 Fair CLR 82.9 75.9 79% 91 30.05 1017.3
Date Time (cdt) Wind (mph) Vis. (mi.) Weather Sky Cond. Air Dwpt Max. Min. Relative Humidity Wind Chill (°F) Heat Index (°F) altimeter (in) sea level (mb) 1 hr 3 hr 6 hr
6 hour
Temperature (ºF) Pressure Precipitation (in)